createdAt,value
2022-11-27T00:01:21.022Z,0.40
2022-11-27T00:03:48.379Z,0.30
2022-11-27T00:06:18.452Z,0.38
2022-11-27T00:08:46.060Z,0.60
2022-11-27T00:11:17.091Z,0.52
2022-11-27T00:13:44.736Z,0.80
2022-11-27T00:16:13.615Z,0.35
2022-11-27T00:18:41.438Z,0.40
2022-11-27T00:21:12.806Z,0.43
2022-11-27T00:23:40.441Z,0.20
2022-11-27T00:26:07.814Z,0.32
2022-11-27T00:28:36.107Z,0.28
2022-11-27T00:31:06.828Z,0.20
2022-11-27T00:33:33.930Z,0.22
2022-11-27T00:36:07.913Z,0.20
2022-11-27T00:38:38.784Z,0.68
2022-11-27T00:43:45.048Z,0.30
2022-11-27T00:46:25.373Z,0.15
2022-11-27T00:48:59.621Z,0.20
2022-11-27T00:51:27.596Z,0.30
2022-11-27T00:53:55.201Z,0.60
2022-11-27T00:56:26.096Z,0.82
2022-11-27T00:58:53.713Z,0.20
2022-11-27T01:01:42.586Z,0.30
2022-11-27T01:04:13.376Z,0.70
2022-11-27T01:06:40.586Z,0.40
2022-11-27T01:09:08.058Z,0.75
2022-11-27T01:11:36.298Z,0.65
2022-11-27T01:14:07.099Z,0.47
2022-11-27T01:16:34.432Z,1.67
2022-11-27T01:19:02.513Z,0.47
2022-11-27T01:21:32.540Z,1.75
2022-11-27T01:24:00.843Z,1.90
2022-11-27T01:26:28.094Z,1.58
2022-11-27T01:28:56.847Z,4.10
2022-11-27T01:31:26.900Z,1.42
2022-11-27T01:33:56.891Z,1.17
2022-11-27T01:36:24.434Z,3.72
2022-11-27T01:38:51.700Z,4.70
2022-11-27T01:41:28.064Z,2.67
2022-11-27T01:43:59.063Z,3.47
2022-11-27T01:46:35.372Z,3.60
2022-11-27T01:49:28.148Z,5.35
2022-11-27T01:52:27.508Z,3.67
2022-11-27T01:55:00.339Z,6.90
2022-11-27T01:57:49.940Z,3.47
2022-11-27T02:00:19.501Z,4.00
2022-11-27T02:02:47.040Z,4.32
2022-11-27T02:05:22.992Z,3.90
2022-11-27T02:07:51.517Z,3.83
2022-11-27T02:10:18.856Z,4.63
2022-11-27T02:12:59.887Z,5.85
2022-11-27T02:16:18.184Z,4.28
2022-11-27T02:19:00.200Z,6.22
2022-11-27T02:21:29.577Z,3.50
2022-11-27T02:23:59.066Z,5.30
2022-11-27T02:27:00.445Z,8.05
2022-11-27T02:29:32.336Z,4.78
2022-11-27T02:32:08.511Z,5.47
2022-11-27T02:35:23.442Z,7.05
2022-11-27T02:37:52.634Z,5.53
2022-11-27T02:40:34.564Z,5.05
2022-11-27T02:43:25.105Z,6.20
2022-11-27T02:45:53.035Z,4.57
2022-11-27T02:48:25.440Z,5.78
2022-11-27T02:50:54.027Z,5.90
2022-11-27T02:53:25.388Z,7.28
2022-11-27T02:55:55.817Z,8.20
2022-11-27T02:58:27.098Z,5.87
2022-11-27T03:03:26.509Z,4.72
2022-11-27T03:05:58.175Z,9.50
2022-11-27T03:08:38.007Z,6.35
2022-11-27T03:11:08.661Z,5.00
2022-11-27T03:13:39.938Z,6.68
2022-11-27T03:19:27.376Z,7.28
2022-11-27T03:21:57.625Z,7.85
2022-11-27T03:24:25.400Z,8.60
2022-11-27T03:26:52.658Z,6.43
2022-11-27T03:29:29.928Z,7.88
2022-11-27T03:31:58.277Z,7.60
2022-11-27T03:34:25.536Z,6.45
2022-11-27T03:36:52.378Z,5.40
2022-11-27T03:39:20.613Z,9.10
2022-11-27T03:41:52.080Z,7.03
2022-11-27T03:44:40.376Z,7.22
2022-11-27T03:47:22.135Z,8.25
2022-11-27T03:50:16.495Z,8.80
2022-11-27T03:53:08.717Z,7.53
2022-11-27T03:56:20.519Z,7.63
2022-11-27T03:58:59.098Z,6.43
2022-11-27T04:01:27.661Z,10.65
2022-11-27T04:03:54.639Z,7.25
2022-11-27T04:06:21.689Z,9.85
2022-11-27T04:08:48.854Z,7.38
2022-11-27T04:11:16.011Z,6.95
2022-11-27T04:13:43.088Z,6.72
2022-11-27T04:16:10.010Z,6.57
2022-11-27T04:18:36.931Z,7.30
2022-11-27T04:21:04.098Z,10.77
2022-11-27T04:23:30.966Z,7.20
2022-11-27T04:25:57.774Z,10.00
2022-11-27T04:28:24.587Z,7.05
2022-11-27T04:30:53.327Z,5.70
2022-11-27T04:33:20.421Z,5.93
2022-11-27T04:35:47.371Z,7.70
2022-11-27T04:38:14.233Z,6.40
2022-11-27T04:40:41.175Z,7.07
2022-11-27T04:43:07.960Z,7.45
2022-11-27T04:45:35.005Z,7.00
2022-11-27T04:48:01.933Z,6.40
2022-11-27T04:50:28.976Z,6.20
2022-11-27T04:52:55.864Z,6.30
2022-11-27T04:55:23.037Z,7.13
2022-11-27T04:57:50.009Z,7.85
2022-11-27T05:00:17.275Z,5.35
2022-11-27T05:02:44.228Z,7.95
2022-11-27T05:05:11.148Z,6.38
2022-11-27T05:07:37.986Z,7.75
2022-11-27T05:10:06.360Z,5.78
2022-11-27T05:12:33.207Z,8.50
2022-11-27T05:15:04.174Z,6.90
2022-11-27T05:17:31.433Z,5.78
2022-11-27T05:19:58.292Z,7.00
2022-11-27T05:22:25.120Z,5.85
2022-11-27T05:24:51.979Z,6.35
2022-11-27T05:27:18.829Z,6.32
2022-11-27T05:29:45.714Z,6.93
2022-11-27T05:32:12.560Z,4.80
2022-11-27T05:34:39.559Z,7.00
2022-11-27T05:37:06.772Z,5.97
2022-11-27T05:39:33.642Z,4.07
2022-11-27T05:42:00.545Z,7.85
2022-11-27T05:44:27.487Z,4.45
2022-11-27T05:46:54.463Z,4.22
2022-11-27T05:49:21.382Z,4.78
2022-11-27T05:51:51.317Z,6.70
2022-11-27T05:54:18.897Z,7.20
2022-11-27T05:56:45.858Z,6.03
2022-11-27T05:59:12.893Z,5.53
2022-11-27T06:01:39.876Z,4.45
2022-11-27T06:04:06.766Z,5.72
2022-11-27T06:06:33.585Z,3.75
2022-11-27T06:09:00.833Z,5.35
2022-11-27T06:11:27.733Z,6.28
2022-11-27T06:13:54.560Z,4.70
2022-11-27T06:16:24.093Z,7.85
2022-11-27T06:18:56.102Z,7.20
2022-11-27T06:21:24.372Z,7.13
2022-11-27T06:23:55.804Z,6.90
2022-11-27T06:26:28.556Z,7.55
2022-11-27T06:28:57.089Z,5.38
2022-11-27T06:31:27.340Z,7.93
2022-11-27T06:33:56.065Z,5.17
2022-11-27T06:36:30.317Z,5.72
2022-11-27T06:38:57.327Z,8.07
2022-11-27T06:41:25.201Z,7.72
2022-11-27T06:43:52.222Z,9.10
2022-11-27T06:46:21.551Z,6.65
2022-11-27T06:48:50.324Z,5.78
2022-11-27T06:51:19.685Z,5.97
2022-11-27T06:53:46.696Z,6.88
2022-11-27T06:56:15.705Z,5.95
2022-11-27T06:58:42.976Z,7.68
2022-11-27T07:01:13.572Z,6.45
2022-11-27T07:03:40.967Z,7.32
2022-11-27T07:06:09.941Z,6.30
2022-11-27T07:08:37.210Z,8.60
2022-11-27T07:11:05.527Z,8.45
2022-11-27T07:13:32.917Z,6.25
2022-11-27T07:16:04.620Z,8.80
2022-11-27T07:18:36.165Z,9.48
2022-11-27T07:21:03.056Z,6.35
2022-11-27T07:23:29.947Z,5.97
2022-11-27T07:25:57.444Z,7.75
2022-11-27T07:28:24.985Z,9.68
2022-11-27T07:30:59.223Z,8.32
2022-11-27T07:33:26.211Z,10.93
2022-11-27T07:36:01.530Z,9.52
2022-11-27T07:38:28.370Z,7.25
2022-11-27T07:40:55.215Z,7.45
2022-11-27T07:43:22.074Z,9.18
2022-11-27T07:45:49.081Z,8.43
2022-11-27T07:48:15.959Z,8.63
2022-11-27T07:50:42.790Z,11.05
2022-11-27T07:53:09.704Z,8.85
2022-11-27T07:55:40.144Z,6.72
2022-11-27T07:58:08.106Z,8.93
2022-11-27T08:00:36.056Z,9.98
2022-11-27T08:03:03.188Z,7.72
2022-11-27T08:05:30.133Z,6.72
2022-11-27T08:08:00.981Z,10.23
2022-11-27T08:10:27.886Z,9.75
2022-11-27T08:12:54.704Z,9.35
2022-11-27T08:15:21.698Z,6.72
2022-11-27T08:17:48.531Z,5.57
2022-11-27T08:20:15.730Z,7.72
2022-11-27T08:22:43.018Z,8.52
2022-11-27T08:25:10.123Z,8.55
2022-11-27T08:27:37.108Z,9.00
2022-11-27T08:30:05.389Z,5.10
2022-11-27T08:32:32.724Z,8.98
2022-11-27T08:34:59.831Z,10.48
2022-11-27T08:37:26.851Z,8.88
2022-11-27T08:39:53.828Z,8.93
2022-11-27T08:42:20.799Z,8.48
2022-11-27T08:44:47.892Z,8.18
2022-11-27T08:47:17.096Z,8.20
2022-11-27T08:49:46.169Z,8.02
2022-11-27T08:52:13.531Z,10.27
2022-11-27T08:54:40.668Z,10.15
2022-11-27T08:57:07.801Z,9.27
2022-11-27T08:59:34.789Z,10.18
2022-11-27T09:02:01.851Z,8.73
2022-11-27T09:04:29.419Z,5.80
2022-11-27T09:06:58.749Z,6.25
2022-11-27T09:09:26.039Z,7.88
2022-11-27T09:11:55.637Z,9.88
2022-11-27T09:14:22.752Z,6.15
2022-11-27T09:16:49.782Z,7.47
2022-11-27T09:19:17.392Z,10.35
2022-11-27T09:21:44.335Z,8.73
2022-11-27T09:24:11.312Z,6.88
2022-11-27T09:26:39.469Z,7.50
2022-11-27T09:29:06.824Z,9.80
2022-11-27T09:31:33.901Z,6.25
2022-11-27T09:34:00.790Z,6.20
2022-11-27T09:36:27.767Z,5.97
2022-11-27T09:38:55.155Z,6.68
2022-11-27T09:41:22.128Z,5.40
2022-11-27T09:44:03.486Z,8.13
2022-11-27T09:49:03.701Z,11.13
2022-11-27T09:51:43.620Z,7.82
2022-11-27T09:54:26.846Z,7.55
2022-11-27T09:56:56.398Z,6.22
2022-11-27T09:59:30.281Z,8.13
2022-11-27T10:01:57.463Z,8.25
2022-11-27T10:04:25.449Z,5.97
2022-11-27T10:07:19.098Z,10.90
2022-11-27T10:10:03.822Z,7.78
2022-11-27T10:12:30.793Z,6.97
2022-11-27T10:15:10.616Z,5.93
2022-11-27T10:17:42.943Z,7.63
2022-11-27T10:20:16.679Z,6.65
2022-11-27T10:22:57.037Z,6.75
2022-11-27T10:25:33.682Z,7.07
2022-11-27T10:28:12.476Z,6.93
2022-11-27T10:30:51.398Z,7.45
2022-11-27T10:33:34.047Z,6.68
2022-11-27T10:36:01.403Z,7.25
2022-11-27T10:38:32.674Z,8.07
2022-11-27T10:41:28.439Z,9.88
2022-11-27T10:44:19.158Z,5.03
2022-11-27T10:46:46.580Z,10.25
2022-11-27T10:49:13.434Z,8.68
2022-11-27T10:51:42.090Z,5.85
2022-11-27T10:54:21.009Z,7.13
2022-11-27T10:56:50.790Z,6.60
2022-11-27T10:59:32.965Z,5.97
2022-11-27T11:02:03.638Z,7.63
2022-11-27T11:04:38.063Z,7.72
2022-11-27T11:07:25.207Z,5.75
2022-11-27T11:09:52.565Z,5.32
2022-11-27T11:12:22.201Z,6.22
2022-11-27T11:14:57.314Z,7.28
2022-11-27T11:17:34.550Z,6.65
2022-11-27T11:20:01.758Z,5.07
2022-11-27T11:22:30.056Z,7.10
2022-11-27T11:24:57.236Z,6.68
2022-11-27T11:27:29.487Z,6.20
2022-11-27T11:30:01.344Z,4.65
2022-11-27T11:32:31.500Z,4.90
2022-11-27T11:35:03.263Z,8.90
2022-11-27T11:37:33.348Z,5.68
2022-11-27T11:40:20.145Z,5.25
2022-11-27T11:42:58.556Z,7.50
2022-11-27T11:45:32.291Z,6.15
2022-11-27T11:48:01.743Z,7.35
2022-11-27T11:50:37.921Z,4.85
2022-11-27T11:53:22.670Z,8.95
2022-11-27T11:56:05.357Z,8.27
2022-11-27T11:59:12.000Z,7.28
2022-11-27T12:01:47.900Z,5.72
2022-11-27T12:04:37.476Z,5.55
2022-11-27T12:07:26.089Z,8.10
2022-11-27T12:10:04.315Z,5.50
2022-11-27T12:12:58.835Z,6.75
2022-11-27T12:15:55.382Z,6.35
2022-11-27T12:18:34.192Z,6.60
2022-11-27T12:21:24.154Z,6.22
2022-11-27T12:23:59.713Z,7.85
2022-11-27T12:26:53.220Z,5.50
2022-11-27T12:29:57.453Z,5.45
2022-11-27T12:32:30.374Z,5.25
2022-11-27T12:35:15.974Z,4.28
2022-11-27T12:38:09.669Z,6.30
2022-11-27T12:40:54.671Z,9.07
2022-11-27T12:43:25.993Z,7.85
2022-11-27T12:46:00.009Z,6.95
2022-11-27T12:48:31.255Z,4.03
2022-11-27T12:54:03.809Z,4.72
2022-11-27T12:56:36.772Z,5.93
2022-11-27T12:59:27.657Z,6.40
2022-11-27T13:02:11.173Z,5.28
2022-11-27T13:04:45.116Z,7.28
2022-11-27T13:07:20.994Z,5.40
2022-11-27T13:10:20.823Z,4.60
2022-11-27T13:13:08.528Z,3.85
2022-11-27T13:15:58.539Z,5.30
2022-11-27T13:18:31.482Z,5.00
2022-11-27T13:21:02.199Z,6.15
2022-11-27T13:23:33.908Z,4.95
2022-11-27T13:26:05.901Z,4.63
2022-11-27T13:28:42.464Z,5.03
2022-11-27T13:31:19.151Z,3.70
2022-11-27T13:33:46.957Z,2.85
2022-11-27T13:36:24.276Z,4.68
2022-11-27T13:39:02.434Z,5.22
2022-11-27T13:41:40.951Z,3.92
2022-11-27T13:44:28.916Z,3.70
2022-11-27T13:47:06.182Z,3.85
2022-11-27T13:49:37.986Z,5.95
2022-11-27T13:52:17.122Z,3.65
2022-11-27T13:55:01.886Z,3.75
2022-11-27T13:57:30.512Z,5.55
2022-11-27T14:00:00.882Z,7.40
2022-11-27T14:02:44.207Z,4.73
2022-11-27T14:05:13.246Z,5.47
2022-11-27T14:07:45.587Z,5.78
2022-11-27T14:10:16.758Z,4.68
2022-11-27T14:12:57.090Z,6.32
2022-11-27T14:15:26.797Z,5.10
2022-11-27T14:18:14.088Z,5.85
2022-11-27T14:20:50.526Z,3.70
2022-11-27T14:23:50.636Z,4.90
2022-11-27T14:26:26.036Z,2.95
2022-11-27T14:28:56.085Z,4.35
2022-11-27T14:31:36.037Z,3.90
2022-11-27T14:34:23.349Z,3.90
2022-11-27T14:36:53.313Z,4.43
2022-11-27T14:39:24.351Z,4.65
2022-11-27T14:42:02.047Z,6.00
2022-11-27T14:44:30.028Z,4.57
2022-11-27T14:47:00.968Z,3.60
2022-11-27T14:49:29.737Z,4.72
2022-11-27T14:52:02.236Z,3.88
2022-11-27T14:54:35.098Z,4.07
2022-11-27T14:57:02.869Z,5.45
2022-11-27T14:59:29.884Z,5.22
2022-11-27T15:02:01.877Z,4.40
2022-11-27T15:04:37.015Z,4.78
2022-11-27T15:07:21.188Z,5.10
2022-11-27T15:09:51.398Z,5.78
2022-11-27T15:12:26.331Z,5.10
2022-11-27T15:15:05.000Z,3.53
2022-11-27T15:17:35.559Z,4.18
2022-11-27T15:20:11.199Z,4.22
2022-11-27T15:22:38.707Z,3.20
2022-11-27T15:25:07.982Z,5.03
2022-11-27T15:27:48.176Z,4.28
2022-11-27T15:30:18.692Z,5.55
2022-11-27T15:32:55.749Z,4.95
2022-11-27T15:35:29.478Z,4.85
2022-11-27T15:37:57.784Z,5.22
2022-11-27T15:40:30.220Z,3.85
2022-11-27T15:42:57.595Z,4.00
2022-11-27T15:45:28.768Z,5.25
2022-11-27T15:50:27.860Z,5.68
2022-11-27T15:52:54.979Z,4.90
2022-11-27T15:55:23.076Z,5.85
2022-11-27T15:57:50.257Z,5.32
2022-11-27T16:00:22.357Z,4.47
2022-11-27T16:02:49.274Z,4.85
2022-11-27T16:05:16.464Z,4.70
2022-11-27T16:07:43.516Z,3.35
2022-11-27T16:10:10.732Z,5.68
2022-11-27T16:12:39.206Z,6.40
2022-11-27T16:15:08.185Z,4.90
2022-11-27T16:17:35.474Z,5.57
2022-11-27T16:20:03.000Z,5.82
2022-11-27T16:22:30.183Z,5.07
2022-11-27T16:24:57.472Z,6.40
2022-11-27T16:27:24.510Z,5.55
2022-11-27T16:29:51.693Z,2.65
2022-11-27T16:32:18.716Z,5.10
2022-11-27T16:34:45.801Z,4.20
2022-11-27T16:37:18.125Z,3.78
2022-11-27T16:39:45.899Z,3.67
2022-11-27T16:42:12.871Z,3.53
2022-11-27T16:44:40.224Z,6.57
2022-11-27T16:47:07.482Z,13.63
2022-11-27T16:49:34.512Z,15.00
2022-11-27T16:52:01.776Z,37.38
2022-11-27T16:54:28.856Z,16.20
2022-11-27T16:56:55.858Z,13.05
2022-11-27T16:59:22.888Z,14.48
2022-11-27T17:01:50.287Z,12.43
2022-11-27T17:04:20.092Z,11.13
2022-11-27T17:06:49.129Z,12.43
2022-11-27T17:09:16.829Z,12.25
2022-11-27T17:11:48.574Z,18.17
2022-11-27T17:14:16.685Z,15.52
2022-11-27T17:16:43.783Z,13.25
2022-11-27T17:19:13.383Z,8.77
2022-11-27T17:21:40.497Z,10.73
2022-11-27T17:24:14.998Z,11.57
2022-11-27T17:26:43.802Z,12.88
2022-11-27T17:29:16.310Z,8.80
2022-11-27T17:31:43.736Z,9.07
2022-11-27T17:34:13.880Z,5.97
2022-11-27T17:36:43.279Z,9.05
2022-11-27T17:39:13.004Z,6.40
2022-11-27T17:41:41.315Z,8.43
2022-11-27T17:44:08.828Z,6.13
2022-11-27T17:46:37.276Z,5.90
2022-11-27T17:49:06.552Z,8.15
2022-11-27T17:51:35.232Z,7.90
2022-11-27T17:54:03.574Z,6.45
2022-11-27T17:56:30.604Z,7.25
2022-11-27T17:58:57.617Z,7.50
2022-11-27T18:01:26.680Z,9.70
2022-11-27T18:04:00.227Z,9.40
2022-11-27T18:06:27.748Z,4.78
2022-11-27T18:08:56.776Z,4.60
2022-11-27T18:11:27.198Z,8.90
2022-11-27T18:13:54.735Z,7.35
2022-11-27T18:16:34.859Z,7.97
2022-11-27T18:19:08.271Z,7.45
2022-11-27T18:21:36.916Z,7.05
2022-11-27T18:27:11.064Z,24.95
2022-11-27T18:29:43.390Z,98.50
2022-11-27T18:32:11.941Z,289.25
2022-11-27T18:34:39.921Z,253.02
2022-11-27T18:37:07.510Z,198.40
2022-11-27T18:39:36.206Z,167.23
2022-11-27T18:42:05.332Z,169.52
2022-11-27T18:44:33.679Z,143.57
2022-11-27T18:47:01.905Z,128.43
2022-11-27T18:49:28.865Z,113.35
2022-11-27T18:51:57.174Z,116.00
2022-11-27T18:54:25.031Z,96.15
2022-11-27T18:56:52.220Z,82.88
2022-11-27T18:59:19.837Z,83.53
2022-11-27T19:01:47.093Z,67.40
2022-11-27T19:04:15.668Z,57.85
2022-11-27T19:06:43.304Z,62.47
2022-11-27T19:09:12.080Z,69.60
2022-11-27T19:11:40.031Z,52.00
2022-11-27T19:14:07.522Z,55.78
2022-11-27T19:16:38.864Z,56.38
2022-11-27T19:19:09.394Z,53.63
2022-11-27T19:21:44.058Z,50.90
2022-11-27T19:24:11.517Z,49.85
2022-11-27T19:26:38.908Z,46.92
2022-11-27T19:29:08.902Z,62.03
2022-11-27T19:31:40.141Z,53.58
2022-11-27T19:34:08.704Z,49.67
2022-11-27T19:36:36.347Z,47.35
2022-11-27T19:39:09.652Z,46.42
2022-11-27T19:41:36.641Z,48.17
2022-11-27T19:44:07.325Z,45.92
2022-11-27T19:46:36.937Z,44.13
2022-11-27T19:49:08.366Z,42.33
2022-11-27T19:51:38.330Z,40.70
2022-11-27T19:54:10.237Z,39.55
2022-11-27T19:56:40.660Z,35.17
2022-11-27T19:59:08.979Z,32.42
2022-11-27T20:01:37.879Z,34.63
2022-11-27T20:04:06.128Z,29.90
2022-11-27T20:06:35.191Z,32.83
2022-11-27T20:09:05.448Z,34.50
2022-11-27T20:11:36.933Z,28.90
2022-11-27T20:14:05.935Z,25.92
2022-11-27T20:16:34.465Z,34.30
2022-11-27T20:19:03.675Z,32.00
2022-11-27T20:21:32.179Z,28.50
2022-11-27T20:24:00.000Z,23.20
2022-11-27T20:26:32.643Z,22.35
2022-11-27T20:29:00.854Z,20.83
2022-11-27T20:31:32.167Z,19.63
2022-11-27T20:34:03.492Z,15.63
2022-11-27T20:36:34.145Z,17.40
2022-11-27T20:39:03.363Z,20.17
2022-11-27T20:41:32.416Z,14.50
2022-11-27T20:44:02.724Z,13.43
2022-11-27T20:46:31.025Z,12.88
2022-11-27T20:48:59.556Z,13.07
2022-11-27T20:51:31.384Z,10.52
2022-11-27T20:54:03.081Z,11.75
2022-11-27T20:56:31.848Z,11.50
2022-11-27T20:59:00.513Z,10.10
2022-11-27T21:01:30.129Z,10.35
2022-11-27T21:04:00.621Z,6.50
2022-11-27T21:06:30.474Z,7.63
2022-11-27T21:09:02.122Z,7.03
2022-11-27T21:11:30.900Z,21.00
2022-11-27T21:14:05.584Z,7.45
2022-11-27T21:16:35.487Z,5.30
2022-11-27T21:19:06.147Z,7.97
2022-11-27T21:21:34.160Z,6.72
2022-11-27T21:24:01.760Z,7.68
2022-11-27T21:26:29.610Z,6.03
2022-11-27T21:28:56.950Z,5.35
2022-11-27T21:31:26.562Z,7.78
2022-11-27T21:33:59.276Z,6.00
2022-11-27T21:36:33.028Z,4.22
2022-11-27T21:39:01.515Z,5.78
2022-11-27T21:41:30.202Z,7.97
2022-11-27T21:43:59.587Z,6.35
2022-11-27T21:46:27.145Z,5.10
2022-11-27T21:48:59.167Z,4.90
2022-11-27T21:51:28.180Z,5.93
2022-11-27T21:53:58.560Z,6.35
2022-11-27T21:56:29.429Z,3.97
2022-11-27T21:58:56.807Z,3.33
2022-11-27T22:01:25.949Z,4.40
2022-11-27T22:03:57.707Z,4.47
2022-11-27T22:06:30.537Z,5.72
2022-11-27T22:08:59.222Z,4.20
2022-11-27T22:11:28.452Z,5.75
2022-11-27T22:13:59.844Z,4.25
2022-11-27T22:16:29.507Z,5.55
2022-11-27T22:18:58.716Z,5.07
2022-11-27T22:21:27.814Z,4.30
2022-11-27T22:23:55.363Z,4.57
2022-11-27T22:26:24.230Z,4.40
2022-11-27T22:28:52.013Z,5.05
2022-11-27T22:31:25.644Z,6.75
2022-11-27T22:33:53.367Z,4.43
2022-11-27T22:36:30.673Z,4.15
2022-11-27T22:38:59.762Z,4.28
2022-11-27T22:41:29.148Z,6.28
2022-11-27T22:43:56.428Z,3.83
2022-11-27T22:46:32.450Z,4.05
2022-11-27T22:49:01.604Z,5.20
2022-11-27T22:51:30.634Z,3.78
2022-11-27T22:53:57.781Z,3.47
2022-11-27T22:56:24.895Z,4.15
2022-11-27T22:59:06.044Z,4.43
2022-11-27T23:01:40.844Z,4.68
2022-11-27T23:04:08.004Z,4.68
2022-11-27T23:06:35.328Z,5.65
2022-11-27T23:09:02.261Z,4.00
2022-11-27T23:11:29.350Z,2.78
2022-11-27T23:13:58.172Z,4.53
2022-11-27T23:16:26.045Z,3.92
2022-11-27T23:18:53.056Z,3.53
2022-11-27T23:21:21.788Z,2.55
2022-11-27T23:23:48.999Z,5.38
2022-11-27T23:26:19.218Z,4.75
2022-11-27T23:28:48.045Z,4.55
2022-11-27T23:31:33.873Z,3.20
2022-11-27T23:34:02.691Z,3.17
2022-11-27T23:36:31.535Z,4.72
2022-11-27T23:39:03.692Z,3.75
2022-11-27T23:41:31.625Z,4.05
2022-11-27T23:43:59.136Z,2.78
2022-11-27T23:46:29.156Z,5.13
2022-11-27T23:48:57.650Z,3.83
2022-11-27T23:51:27.359Z,4.00
2022-11-27T23:53:54.771Z,3.38
2022-11-27T23:56:25.224Z,3.55
2022-11-27T23:58:53.676Z,2.95
